createdAt,value
2022-10-24T00:01:23.053Z,100.00
2022-10-24T00:03:50.954Z,100.00
2022-10-24T00:06:19.887Z,100.00
2022-10-24T00:08:49.098Z,100.00
2022-10-24T00:11:24.747Z,100.00
2022-10-24T00:13:54.621Z,100.00
2022-10-24T00:16:21.952Z,100.00
2022-10-24T00:18:49.265Z,100.00
2022-10-24T00:21:16.656Z,100.00
2022-10-24T00:23:43.928Z,100.00
2022-10-24T00:26:14.212Z,100.00
2022-10-24T00:28:41.342Z,100.00
2022-10-24T00:31:16.272Z,100.00
2022-10-24T00:33:44.569Z,100.00
2022-10-24T00:36:18.282Z,100.00
2022-10-24T00:38:45.551Z,100.00
2022-10-24T00:41:28.592Z,100.00
2022-10-24T00:44:20.379Z,100.00
2022-10-24T00:47:20.738Z,100.00
2022-10-24T00:50:12.531Z,100.00
2022-10-24T00:52:46.847Z,100.00
2022-10-24T00:55:15.643Z,100.00
2022-10-24T00:57:54.883Z,100.00
2022-10-24T01:00:31.735Z,100.00
2022-10-24T01:02:59.562Z,100.00
2022-10-24T01:05:40.925Z,100.00
2022-10-24T01:08:46.705Z,100.00
2022-10-24T01:11:47.088Z,100.00
2022-10-24T01:14:54.179Z,100.00
2022-10-24T01:17:59.002Z,100.00
2022-10-24T01:21:06.002Z,100.00
2022-10-24T01:24:01.024Z,100.00
2022-10-24T01:27:06.487Z,100.00
2022-10-24T01:30:17.813Z,100.00
2022-10-24T01:33:15.794Z,100.00
2022-10-24T01:36:12.754Z,100.00
2022-10-24T01:38:51.975Z,100.00
2022-10-24T01:41:24.065Z,100.00
2022-10-24T01:44:07.484Z,100.00
2022-10-24T01:46:43.623Z,100.00
2022-10-24T01:49:19.469Z,100.00
2022-10-24T01:51:53.410Z,100.00
2022-10-24T01:54:21.822Z,100.00
2022-10-24T01:56:49.015Z,100.00
2022-10-24T01:59:28.357Z,100.00
2022-10-24T02:02:09.790Z,100.00
2022-10-24T02:04:46.090Z,100.00
2022-10-24T02:07:16.097Z,100.00
2022-10-24T02:09:49.969Z,100.00
2022-10-24T02:12:19.897Z,100.00
2022-10-24T02:14:57.371Z,100.00
2022-10-24T02:17:24.832Z,100.00
2022-10-24T02:19:52.133Z,100.00
2022-10-24T02:22:45.788Z,100.00
2022-10-24T02:25:32.075Z,100.00
2022-10-24T02:28:13.097Z,100.00
2022-10-24T02:30:50.682Z,100.00
2022-10-24T02:33:18.907Z,100.00
2022-10-24T02:35:48.696Z,100.00
2022-10-24T02:38:27.308Z,100.00
2022-10-24T02:40:57.649Z,100.00
2022-10-24T02:43:27.509Z,100.00
2022-10-24T02:45:58.082Z,100.00
2022-10-24T02:48:33.466Z,100.00
2022-10-24T02:51:02.271Z,100.00
2022-10-24T02:53:29.439Z,100.00
2022-10-24T02:55:56.522Z,100.00
2022-10-24T02:58:23.469Z,100.00
2022-10-24T03:00:51.018Z,100.00
2022-10-24T03:03:18.411Z,100.00
2022-10-24T03:05:45.479Z,100.00
2022-10-24T03:08:12.885Z,100.00
2022-10-24T03:10:40.342Z,100.00
2022-10-24T03:13:07.327Z,100.00
2022-10-24T03:15:34.614Z,100.00
2022-10-24T03:18:01.614Z,100.00
2022-10-24T03:20:28.720Z,100.00
2022-10-24T03:22:55.713Z,100.00
2022-10-24T03:25:22.752Z,100.00
2022-10-24T03:27:49.638Z,100.00
2022-10-24T03:30:16.681Z,100.00
2022-10-24T03:32:44.162Z,100.00
2022-10-24T03:35:14.008Z,100.00
2022-10-24T03:37:41.632Z,100.00
2022-10-24T03:40:10.699Z,100.00
2022-10-24T03:42:38.081Z,100.00
2022-10-24T03:45:05.959Z,100.00
2022-10-24T03:47:32.936Z,100.00
2022-10-24T03:49:59.868Z,100.00
2022-10-24T03:52:26.833Z,100.00
2022-10-24T03:54:53.780Z,100.00
2022-10-24T03:59:48.702Z,100.00
2022-10-24T04:02:15.709Z,100.00
2022-10-24T04:04:42.649Z,100.00
2022-10-24T04:07:09.598Z,100.00
2022-10-24T04:09:36.539Z,100.00
2022-10-24T04:12:03.840Z,100.00
2022-10-24T04:14:30.791Z,100.00
2022-10-24T04:16:57.783Z,100.00
2022-10-24T04:19:24.709Z,100.00
2022-10-24T04:21:51.748Z,100.00
2022-10-24T04:24:19.066Z,100.00
2022-10-24T04:26:46.028Z,100.00
2022-10-24T04:29:13.003Z,100.00
2022-10-24T04:31:39.952Z,100.00
2022-10-24T04:34:07.098Z,100.00
2022-10-24T04:36:35.058Z,100.00
2022-10-24T04:39:02.771Z,100.00
2022-10-24T04:41:29.961Z,100.00
2022-10-24T04:43:57.172Z,100.00
2022-10-24T04:46:24.201Z,100.00
2022-10-24T04:48:51.269Z,100.00
2022-10-24T04:51:21.565Z,100.00
2022-10-24T04:53:50.958Z,100.00
2022-10-24T04:56:19.043Z,100.00
2022-10-24T04:58:46.408Z,100.00
2022-10-24T05:01:13.494Z,100.00
2022-10-24T05:03:40.732Z,100.00
2022-10-24T05:06:07.899Z,100.00
2022-10-24T05:08:34.921Z,100.00
2022-10-24T05:11:02.286Z,100.00
2022-10-24T05:13:31.789Z,100.00
2022-10-24T05:16:02.093Z,100.00
2022-10-24T05:18:29.162Z,100.00
2022-10-24T05:21:00.854Z,100.00
2022-10-24T05:23:28.157Z,100.00
2022-10-24T05:25:55.142Z,100.00
2022-10-24T05:28:22.181Z,100.00
2022-10-24T05:30:49.228Z,100.00
2022-10-24T05:33:16.185Z,100.00
2022-10-24T05:35:43.253Z,100.00
2022-10-24T05:38:10.271Z,100.00
2022-10-24T05:40:37.324Z,100.00
2022-10-24T05:43:04.286Z,100.00
2022-10-24T05:45:31.238Z,100.00
2022-10-24T05:47:58.325Z,100.00
2022-10-24T05:50:26.955Z,100.00
2022-10-24T05:52:54.016Z,100.00
2022-10-24T05:55:20.927Z,100.00
2022-10-24T05:57:48.193Z,100.00
2022-10-24T06:00:17.191Z,100.00
2022-10-24T06:05:16.795Z,100.00
2022-10-24T06:07:44.070Z,100.00
2022-10-24T06:10:12.944Z,100.00
2022-10-24T06:12:40.439Z,100.00
2022-10-24T06:15:09.997Z,100.00
2022-10-24T06:17:37.026Z,100.00
2022-10-24T06:20:05.293Z,100.00
2022-10-24T06:22:32.261Z,100.00
2022-10-24T06:25:00.184Z,100.00
2022-10-24T06:27:27.701Z,100.00
2022-10-24T06:29:54.619Z,100.00
2022-10-24T06:32:21.976Z,100.00
2022-10-24T06:34:48.997Z,100.00
2022-10-24T06:37:16.198Z,100.00
2022-10-24T06:39:43.263Z,100.00
2022-10-24T06:42:10.512Z,100.00
2022-10-24T06:44:38.581Z,100.00
2022-10-24T06:47:06.850Z,100.00
2022-10-24T06:49:33.926Z,100.00
2022-10-24T06:52:00.971Z,100.00
2022-10-24T06:54:30.270Z,100.00
2022-10-24T06:56:57.778Z,100.00
2022-10-24T06:59:24.865Z,100.00
2022-10-24T07:01:52.183Z,100.00
2022-10-24T07:04:19.608Z,100.00
2022-10-24T07:06:46.670Z,100.00
2022-10-24T07:09:15.406Z,100.00
2022-10-24T07:11:44.141Z,100.00
2022-10-24T07:14:12.185Z,100.00
2022-10-24T07:16:39.788Z,100.00
2022-10-24T07:19:07.911Z,100.00
2022-10-24T07:21:35.789Z,100.00
2022-10-24T07:24:03.801Z,100.00
2022-10-24T07:26:31.196Z,100.00
2022-10-24T07:31:33.218Z,100.00
2022-10-24T07:34:03.115Z,100.00
2022-10-24T07:36:32.971Z,100.00
2022-10-24T07:39:00.969Z,100.00
2022-10-24T07:41:31.247Z,100.00
2022-10-24T07:44:02.104Z,100.00
2022-10-24T07:46:30.115Z,100.00
2022-10-24T07:48:57.216Z,100.00
2022-10-24T07:51:27.953Z,100.00
2022-10-24T07:53:56.419Z,100.00
2022-10-24T07:56:23.378Z,100.00
2022-10-24T07:58:50.483Z,100.00
2022-10-24T08:01:22.245Z,100.00
2022-10-24T08:03:49.305Z,100.00
2022-10-24T08:06:21.609Z,100.00
2022-10-24T08:08:49.076Z,100.00
2022-10-24T08:11:21.669Z,100.00
2022-10-24T08:13:50.592Z,100.00
2022-10-24T08:16:21.130Z,100.00
2022-10-24T08:18:50.374Z,100.00
2022-10-24T08:21:19.473Z,100.00
2022-10-24T08:23:49.804Z,100.00
2022-10-24T08:26:21.991Z,100.00
2022-10-24T08:28:49.319Z,100.00
2022-10-24T08:31:21.314Z,100.00
2022-10-24T08:33:52.439Z,100.00
2022-10-24T08:36:23.875Z,100.00
2022-10-24T08:38:51.183Z,100.00
2022-10-24T08:41:41.329Z,100.00
2022-10-24T08:44:26.383Z,100.00
2022-10-24T08:47:03.516Z,100.00
2022-10-24T08:49:51.718Z,100.00
2022-10-24T08:52:35.390Z,100.00
2022-10-24T08:55:51.064Z,100.00
2022-10-24T08:58:23.138Z,100.00
2022-10-24T09:00:54.190Z,100.00
2022-10-24T09:03:50.766Z,100.00
2022-10-24T09:06:20.257Z,100.00
2022-10-24T09:09:05.475Z,100.00
2022-10-24T09:11:59.376Z,100.00
2022-10-24T09:14:36.734Z,100.00
2022-10-24T09:17:23.623Z,100.00
2022-10-24T09:20:01.813Z,100.00
2022-10-24T09:22:35.237Z,100.00
2022-10-24T09:25:08.874Z,100.00
2022-10-24T09:27:40.083Z,100.00
2022-10-24T09:30:17.096Z,100.00
2022-10-24T09:32:44.441Z,100.00
2022-10-24T09:35:24.986Z,100.00
2022-10-24T09:38:17.087Z,100.00
2022-10-24T09:40:52.140Z,100.00
2022-10-24T09:43:28.993Z,100.00
2022-10-24T09:46:06.343Z,100.00
2022-10-24T09:49:02.766Z,100.00
2022-10-24T09:52:00.096Z,100.00
2022-10-24T09:54:31.087Z,100.00
2022-10-24T09:57:29.441Z,100.00
2022-10-24T10:00:01.500Z,100.00
2022-10-24T10:02:34.402Z,100.00
2022-10-24T10:05:04.338Z,100.00
2022-10-24T10:07:38.273Z,100.00
2022-10-24T10:10:05.500Z,100.00
2022-10-24T10:12:42.425Z,100.00
2022-10-24T10:15:28.533Z,100.00
2022-10-24T10:18:00.812Z,100.00
2022-10-24T10:20:42.680Z,100.00
2022-10-24T10:23:36.381Z,100.00
2022-10-24T10:26:16.982Z,100.00
2022-10-24T10:29:04.496Z,100.00
2022-10-24T10:31:46.701Z,100.00
2022-10-24T10:34:39.932Z,100.00
2022-10-24T10:37:25.643Z,100.00
2022-10-24T10:40:01.408Z,100.00
2022-10-24T10:42:52.772Z,100.00
2022-10-24T10:45:49.628Z,100.00
2022-10-24T10:48:49.880Z,100.00
2022-10-24T10:51:44.728Z,100.00
2022-10-24T10:54:30.122Z,100.00
2022-10-24T10:57:22.329Z,100.00
2022-10-24T11:00:09.332Z,100.00
2022-10-24T11:02:53.820Z,100.00
2022-10-24T11:05:41.364Z,100.00
2022-10-24T11:08:39.603Z,100.00
2022-10-24T11:11:24.668Z,100.00
2022-10-24T11:14:35.019Z,100.00
2022-10-24T11:17:36.913Z,100.00
2022-10-24T11:20:19.761Z,100.00
2022-10-24T11:23:05.642Z,100.00
2022-10-24T11:25:44.223Z,100.00
2022-10-24T11:28:32.882Z,100.00
2022-10-24T11:31:16.431Z,100.00
2022-10-24T11:33:54.491Z,100.00
2022-10-24T11:37:00.572Z,100.00
2022-10-24T11:39:54.698Z,100.00
2022-10-24T11:42:47.606Z,100.00
2022-10-24T11:45:22.971Z,100.00
2022-10-24T11:48:11.169Z,100.00
2022-10-24T11:50:48.197Z,100.00
2022-10-24T11:53:49.602Z,100.00
2022-10-24T11:56:41.462Z,100.00
2022-10-24T11:59:18.729Z,100.00
2022-10-24T12:02:30.580Z,100.00
2022-10-24T12:06:01.610Z,100.00
2022-10-24T12:08:46.404Z,100.00
2022-10-24T12:11:34.943Z,100.00
2022-10-24T12:14:19.029Z,100.00
2022-10-24T12:17:45.351Z,100.00
2022-10-24T12:20:21.166Z,100.00
2022-10-24T12:22:50.577Z,100.00
2022-10-24T12:25:35.338Z,100.00
2022-10-24T12:28:21.119Z,100.00
2022-10-24T12:31:15.986Z,100.00
2022-10-24T12:33:44.943Z,100.00
2022-10-24T12:36:12.551Z,100.00
2022-10-24T12:38:39.888Z,100.00
2022-10-24T12:41:34.504Z,100.00
2022-10-24T12:44:29.963Z,100.00
2022-10-24T12:46:56.985Z,100.00
2022-10-24T12:49:33.658Z,100.00
2022-10-24T12:52:32.522Z,100.00
2022-10-24T12:55:00.277Z,100.00
2022-10-24T12:57:36.702Z,100.00
2022-10-24T13:00:23.710Z,100.00
2022-10-24T13:03:19.746Z,100.00
2022-10-24T13:06:07.135Z,100.00
2022-10-24T13:08:42.896Z,100.00
2022-10-24T13:11:22.021Z,100.00
2022-10-24T13:14:08.766Z,93.52
2022-10-24T13:17:08.577Z,92.97
2022-10-24T13:19:36.999Z,95.60
2022-10-24T13:22:04.426Z,88.17
2022-10-24T13:24:37.764Z,88.55
2022-10-24T13:27:11.899Z,89.13
2022-10-24T13:29:41.177Z,89.84
2022-10-24T13:32:08.104Z,90.59
2022-10-24T13:34:52.372Z,92.82
2022-10-24T13:37:32.123Z,90.69
2022-10-24T13:40:30.590Z,96.54
2022-10-24T13:43:07.847Z,98.42
2022-10-24T13:45:57.427Z,92.26
2022-10-24T13:48:31.487Z,91.66
2022-10-24T13:51:29.174Z,88.17
2022-10-24T13:54:14.846Z,88.81
2022-10-24T13:56:45.216Z,87.75
2022-10-24T13:59:37.452Z,85.35
2022-10-24T14:02:14.927Z,90.56
2022-10-24T14:04:48.109Z,87.58
2022-10-24T14:07:27.871Z,89.20
2022-10-24T14:10:16.991Z,91.04
2022-10-24T14:12:45.047Z,94.15
2022-10-24T14:15:22.650Z,95.34
2022-10-24T14:18:08.407Z,94.03
2022-10-24T14:20:37.797Z,94.39
2022-10-24T14:23:28.056Z,92.68
2022-10-24T14:26:04.224Z,92.43
2022-10-24T14:28:37.949Z,92.02
2022-10-24T14:31:21.852Z,97.29
2022-10-24T14:33:52.191Z,98.73
2022-10-24T14:36:22.971Z,100.00
2022-10-24T14:38:56.242Z,94.16
2022-10-24T14:41:51.967Z,99.33
2022-10-24T14:44:22.086Z,100.00
2022-10-24T14:47:16.833Z,100.00
2022-10-24T14:49:43.819Z,97.27
2022-10-24T14:52:39.025Z,95.71
2022-10-24T14:55:23.512Z,94.22
2022-10-24T14:57:53.590Z,91.17
2022-10-24T15:00:27.300Z,91.75
2022-10-24T15:02:58.758Z,92.60
2022-10-24T15:05:40.124Z,92.94
2022-10-24T15:08:28.693Z,90.91
2022-10-24T15:11:21.971Z,88.53
2022-10-24T15:14:05.541Z,87.53
2022-10-24T15:16:39.770Z,87.81
2022-10-24T15:19:17.955Z,86.66
2022-10-24T15:21:47.304Z,85.37
2022-10-24T15:24:26.623Z,85.96
2022-10-24T15:27:13.137Z,84.92
2022-10-24T15:29:40.904Z,85.84
2022-10-24T15:32:11.403Z,88.15
2022-10-24T15:34:38.338Z,88.27
2022-10-24T15:37:07.665Z,89.86
2022-10-24T15:39:34.904Z,89.57
2022-10-24T15:44:35.319Z,91.02
2022-10-24T15:47:02.334Z,91.35
2022-10-24T15:49:30.855Z,92.32
2022-10-24T15:52:01.655Z,93.07
2022-10-24T15:54:29.308Z,93.54
2022-10-24T15:56:56.437Z,93.63
2022-10-24T15:59:26.755Z,94.84
2022-10-24T16:02:01.322Z,95.53
2022-10-24T16:04:29.075Z,95.40
2022-10-24T16:06:56.341Z,95.92
2022-10-24T16:09:27.884Z,96.54
2022-10-24T16:11:55.516Z,97.45
2022-10-24T16:14:26.047Z,95.94
2022-10-24T16:16:54.984Z,97.82
2022-10-24T16:19:23.357Z,98.54
2022-10-24T16:21:50.310Z,99.03
2022-10-24T16:24:18.398Z,99.51
2022-10-24T16:26:45.361Z,98.37
2022-10-24T16:29:12.464Z,98.46
2022-10-24T16:31:39.535Z,98.66
2022-10-24T16:34:07.412Z,98.42
2022-10-24T16:36:35.400Z,99.03
2022-10-24T16:39:03.552Z,98.07
2022-10-24T16:41:30.590Z,99.24
2022-10-24T16:43:58.342Z,99.49
2022-10-24T16:46:27.955Z,100.00
2022-10-24T16:48:56.108Z,100.00
2022-10-24T16:51:32.002Z,100.00
2022-10-24T16:54:01.145Z,100.00
2022-10-24T16:56:29.068Z,100.00
2022-10-24T16:58:56.239Z,100.00
2022-10-24T17:01:23.661Z,100.00
2022-10-24T17:03:50.865Z,100.00
2022-10-24T17:06:18.013Z,100.00
2022-10-24T17:08:45.217Z,100.00
2022-10-24T17:11:39.389Z,100.00
2022-10-24T17:13:59.497Z,100.00
2022-10-24T17:16:26.542Z,100.00
2022-10-24T17:19:05.584Z,100.00
2022-10-24T17:21:41.863Z,100.00
2022-10-24T17:24:12.056Z,100.00
2022-10-24T17:26:41.178Z,100.00
2022-10-24T17:29:12.227Z,100.00
2022-10-24T17:31:39.355Z,100.00
2022-10-24T17:34:06.705Z,100.00
2022-10-24T17:36:38.453Z,100.00
2022-10-24T17:39:11.370Z,100.00
2022-10-24T17:41:40.769Z,100.00
2022-10-24T17:44:17.360Z,100.00
2022-10-24T17:46:45.582Z,100.00
2022-10-24T17:49:17.830Z,100.00
2022-10-24T17:51:49.130Z,100.00
2022-10-24T17:54:16.724Z,100.00
2022-10-24T17:56:44.294Z,100.00
2022-10-24T17:59:11.400Z,100.00
2022-10-24T18:01:38.741Z,100.00
2022-10-24T18:04:06.158Z,100.00
2022-10-24T18:06:33.519Z,100.00
2022-10-24T18:09:00.717Z,100.00
2022-10-24T18:11:27.777Z,100.00
2022-10-24T18:13:54.727Z,100.00
2022-10-24T18:16:22.141Z,100.00
2022-10-24T18:18:49.568Z,100.00
2022-10-24T18:21:24.385Z,100.00
2022-10-24T18:23:53.674Z,100.00
2022-10-24T18:26:26.868Z,100.00
2022-10-24T18:28:55.596Z,100.00
2022-10-24T18:31:28.245Z,100.00
2022-10-24T18:33:58.143Z,100.00
2022-10-24T18:36:28.229Z,100.00
2022-10-24T18:38:57.255Z,100.00
2022-10-24T18:41:46.571Z,100.00
2022-10-24T18:44:30.832Z,100.00
2022-10-24T18:47:02.455Z,100.00
2022-10-24T18:49:31.801Z,100.00
2022-10-24T18:52:10.551Z,100.00
2022-10-24T18:55:02.141Z,100.00
2022-10-24T18:57:34.617Z,100.00
2022-10-24T19:00:02.081Z,100.00
2022-10-24T19:02:32.002Z,100.00
2022-10-24T19:05:21.669Z,100.00
2022-10-24T19:07:50.247Z,100.00
2022-10-24T19:10:25.134Z,100.00
2022-10-24T19:12:57.391Z,100.00
2022-10-24T19:15:25.088Z,100.00
2022-10-24T19:17:52.297Z,100.00
2022-10-24T19:20:23.876Z,100.00
2022-10-24T19:22:51.500Z,100.00
2022-10-24T19:25:19.318Z,100.00
2022-10-24T19:27:46.441Z,100.00
2022-10-24T19:30:13.821Z,100.00
2022-10-24T19:32:40.858Z,100.00
2022-10-24T19:35:08.175Z,100.00
2022-10-24T19:37:37.042Z,100.00
2022-10-24T19:40:05.328Z,100.00
2022-10-24T19:42:34.627Z,100.00
2022-10-24T19:45:02.515Z,100.00
2022-10-24T19:47:29.536Z,100.00
2022-10-24T19:49:56.511Z,100.00
2022-10-24T19:52:23.595Z,100.00
2022-10-24T19:54:50.594Z,100.00
2022-10-24T19:57:17.812Z,100.00
2022-10-24T19:59:44.744Z,100.00
2022-10-24T20:02:12.452Z,100.00
2022-10-24T20:04:40.151Z,100.00
2022-10-24T20:07:09.277Z,100.00
2022-10-24T20:09:37.030Z,100.00
2022-10-24T20:12:05.019Z,100.00
2022-10-24T20:14:32.095Z,100.00
2022-10-24T20:16:59.053Z,100.00
2022-10-24T20:19:26.351Z,100.00
2022-10-24T20:21:53.308Z,100.00
2022-10-24T20:24:20.333Z,100.00
2022-10-24T20:26:47.338Z,100.00
2022-10-24T20:29:17.036Z,100.00
2022-10-24T20:31:47.168Z,100.00
2022-10-24T20:34:15.266Z,100.00
2022-10-24T20:36:47.170Z,100.00
2022-10-24T20:39:16.378Z,100.00
2022-10-24T20:41:43.822Z,100.00
2022-10-24T20:44:12.002Z,100.00
2022-10-24T20:46:39.694Z,100.00
2022-10-24T20:49:06.769Z,100.00
2022-10-24T20:51:33.973Z,100.00
2022-10-24T20:54:00.890Z,100.00
2022-10-24T20:56:28.037Z,100.00
2022-10-24T20:58:56.175Z,100.00
2022-10-24T21:01:26.439Z,100.00
2022-10-24T21:03:55.144Z,100.00
2022-10-24T21:06:33.832Z,100.00
2022-10-24T21:11:36.494Z,100.00
2022-10-24T21:14:10.739Z,100.00
2022-10-24T21:16:38.415Z,100.00
2022-10-24T21:19:05.837Z,100.00
2022-10-24T21:21:33.680Z,100.00
2022-10-24T21:24:05.929Z,100.00
2022-10-24T21:26:35.062Z,100.00
2022-10-24T21:29:14.896Z,100.00
2022-10-24T21:31:50.460Z,100.00
2022-10-24T21:34:18.676Z,100.00
2022-10-24T21:36:46.163Z,100.00
2022-10-24T21:39:15.416Z,100.00
2022-10-24T21:41:43.636Z,100.00
2022-10-24T21:44:11.320Z,100.00
2022-10-24T21:46:38.626Z,100.00
2022-10-24T21:49:05.932Z,100.00
2022-10-24T21:51:35.629Z,100.00
2022-10-24T21:54:14.345Z,100.00
2022-10-24T21:56:41.742Z,100.00
2022-10-24T21:59:12.878Z,100.00
2022-10-24T22:01:41.649Z,100.00
2022-10-24T22:04:10.439Z,100.00
2022-10-24T22:06:38.193Z,100.00
2022-10-24T22:09:07.551Z,100.00
2022-10-24T22:11:36.365Z,100.00
2022-10-24T22:14:04.864Z,100.00
2022-10-24T22:16:33.356Z,100.00
2022-10-24T22:19:03.024Z,100.00
2022-10-24T22:21:30.413Z,100.00
2022-10-24T22:23:59.421Z,100.00
2022-10-24T22:26:28.735Z,100.00
2022-10-24T22:28:56.280Z,100.00
2022-10-24T22:31:25.967Z,100.00
2022-10-24T22:33:54.398Z,100.00
2022-10-24T22:36:58.950Z,100.00
2022-10-24T22:39:27.650Z,100.00
2022-10-24T22:41:55.322Z,100.00
2022-10-24T22:44:23.405Z,100.00
2022-10-24T22:47:34.644Z,100.00
2022-10-24T22:50:29.016Z,100.00
2022-10-24T22:52:56.453Z,100.00
2022-10-24T22:55:36.230Z,100.00
2022-10-24T22:58:05.706Z,100.00
2022-10-24T23:00:33.171Z,100.00
2022-10-24T23:03:17.253Z,100.00
2022-10-24T23:06:04.241Z,100.00
2022-10-24T23:08:40.155Z,100.00
2022-10-24T23:11:11.251Z,100.00
2022-10-24T23:13:40.470Z,100.00
2022-10-24T23:16:29.916Z,100.00
2022-10-24T23:18:57.487Z,100.00
2022-10-24T23:21:36.951Z,100.00
2022-10-24T23:24:08.916Z,100.00
2022-10-24T23:27:11.893Z,100.00
2022-10-24T23:29:43.515Z,100.00
2022-10-24T23:32:29.516Z,100.00
2022-10-24T23:34:58.661Z,100.00
2022-10-24T23:37:41.100Z,100.00
2022-10-24T23:40:17.192Z,100.00
2022-10-24T23:42:49.729Z,100.00
2022-10-24T23:45:24.195Z,100.00
2022-10-24T23:48:12.934Z,100.00
2022-10-24T23:51:15.566Z,100.00
2022-10-24T23:53:55.371Z,100.00
2022-10-24T23:56:25.617Z,100.00
2022-10-24T23:58:53.509Z,100.00
